Latest Weather Observations for Larapuna (Eddystone Point)

IDT60801

Issued at 10:31 am EDT Sunday 21 December 2014 (issued every 30 minutes, with the page automatically refreshed every 10 minutes)

About weather observations | Map of weather stations | Latest weather observations for TAS | Other Formats
Station Details ID: 092045 Name: LARAPUNA (EDDYSTONE POINT) Lat: -40.99 Lon: 148.35 Height: 19.7 m
Data from the previous 72 hours. | See also: Recent months at Larapuna (Eddystone Point)
Date/Time
EDT
Temp
°C
App
Temp
°C
Dew
Point
Rel
Hum
%
Delta-T
°C
Wind Press
QNH
hPa
Press
MSL
hPa
Rain
since 9 am
mm
Dir
 
Spd
km/h
Gust
km/h
Spd
kts
Gust
kts
21/10:30am 18.8 17.5 14.7 77 2.4 NNE 15 17 8 9 1015.1 1015.1 0.0
21/10:00am 19.9 19.9 15.3 75 2.7 ESE 9 13 5 7 1015.1 1015.1 0.0
21/09:30am 19.5 19.0 15.0 75 2.6 S 11 15 6 8 1015.1 1015.1 0.0
21/09:00am 19.3 18.5 15.2 77 2.4 S 13 13 7 7 1015.0 1015.0 0.0
21/08:30am 18.8 18.2 14.7 77 2.4 S 11 15 6 8 1014.9 1014.9 0.0
21/08:00am 18.2 17.6 14.7 80 2.0 SSW 11 13 6 7 1015.0 1015.0 0.0
21/07:30am 17.3 15.9 14.6 84 1.6 SSW 15 19 8 10 1015.5 1015.5 0.0
21/07:00am 15.8 15.1 13.3 85 1.4 SSE 9 11 5 6 1015.5 1015.5 0.0
21/06:30am 16.1 15.2 13.8 86 1.3 SSE 11 13 6 7 1015.3 1015.3 0.0
21/05:30am 15.8 14.8 13.5 86 1.3 E 11 15 6 8 1014.5 1014.5 0.0
21/05:00am 15.6 14.2 13.3 86 1.3 ESE 13 17 7 9 1014.4 1014.4 0.0
21/04:30am 15.6 13.7 12.9 84 1.5 ESE 15 19 8 10 1014.4 1014.4 0.0
21/04:00am 15.8 13.5 13.1 84 1.5 ESE 17 20 9 11 1014.5 1014.5 0.0
21/03:30am 15.7 13.8 13.0 84 1.5 ESE 15 22 8 12 1014.5 1014.5 0.0
21/03:00am 15.8 13.5 12.9 83 1.6 ESE 17 22 9 12 1014.8 1014.8 0.0
21/02:30am 15.8 13.4 12.7 82 1.7 ESE 17 20 9 11 1015.2 1015.2 0.0
21/02:00am 15.9 13.2 12.8 82 1.7 SE 19 22 10 12 1015.4 1015.4 0.0
21/01:30am 16.0 13.3 12.9 82 1.7 SE 19 28 10 15 1015.5 1015.5 0.0
21/01:00am 15.9 12.6 12.8 82 1.7 SE 22 28 12 15 1015.8 1015.8 0.0
21/12:30am 15.9 12.6 12.8 82 1.7 SE 22 28 12 15 1015.9 1015.9 0.0
21/12:00am 16.0 11.9 12.7 81 1.8 SE 26 35 14 19 1015.9 1015.9 0.0
 
Date/Time
EDT
Temp
°C
App
Temp
°C
Dew
Point
Rel
Hum
%
Delta-T
°C
Wind Press
QNH
hPa
Press
MSL
hPa
Rain
since 9 am
mm
Dir
 
Spd
km/h
Gust
km/h
Spd
kts
Gust
kts
20/11:30pm 16.0 11.5 12.7 81 1.8 SE 28 35 15 19 1016.1 1016.1 0.0
20/11:00pm 16.2 11.1 13.1 82 1.7 SE 32 39 17 21 1015.8 1015.8 0.0
20/10:30pm 16.2 11.0 12.9 81 1.8 SE 32 39 17 21 1015.7 1015.7 0.0
20/10:00pm 16.2 10.8 12.9 81 1.8 SSE 33 39 18 21 1015.9 1015.9 0.0
20/09:30pm 16.2 10.2 13.3 83 1.6 SSE 37 46 20 25 1015.5 1015.5 0.0
20/09:00pm 16.4 10.5 13.7 84 1.5 SSE 37 44 20 24 1015.0 1015.0 0.0
20/08:30pm 16.8 10.7 14.1 84 1.5 SSE 39 46 21 25 1014.7 1014.7 0.0
20/08:00pm 17.0 10.4 13.7 81 1.9 SSE 41 52 22 28 1014.0 1014.0 0.0
20/07:30pm 17.2 10.5 14.5 84 1.6 S 43 50 23 27 1013.3 1013.3 0.0
20/07:19pm 17.6 11.3 14.7 83 1.7 S 41 48 22 26 1012.8 1012.8 0.0
20/07:00pm 18.0 11.7 14.7 81 1.9 SW 41 44 22 24 1012.5 1012.5 0.0
20/06:30pm 18.9 13.4 14.8 77 2.4 SSW 37 43 20 23 1012.1 1012.1 0.0
20/06:00pm 21.4 16.9 11.4 53 5.6 W 26 35 14 19 1011.7 1011.7 0.0
20/05:30pm 21.8 16.6 11.5 52 5.7 WNW 30 43 16 23 1011.2 1011.2 0.0
20/05:00pm 22.6 17.0 11.4 49 6.3 WNW 32 44 17 24 1010.9 1010.9 0.0
20/04:30pm 23.2 17.0 12.5 51 6.1 WNW 37 56 20 30 1010.7 1010.7 0.0
20/04:25pm 22.9 16.6 12.2 51 6.1 WNW 37 56 20 30 1010.9 1010.9 0.0
20/04:00pm 22.4 15.1 12.9 55 5.4 WNW 43 56 23 30 1010.9 1010.9 0.0
20/03:40pm 22.6 16.0 13.7 57 5.2 NW 41 59 22 32 1011.0 1011.0 0.0
20/03:30pm 22.0 15.5 13.9 60 4.7 WNW 41 56 22 30 1011.0 1011.0 0.0
20/03:00pm 22.2 16.5 14.3 61 4.6 WNW 37 48 20 26 1011.4 1011.4 0.0
20/02:30pm 22.5 17.1 14.9 62 4.5 NW 37 56 20 30 1011.6 1011.6 0.0
20/02:21pm 21.9 16.3 14.5 63 4.3 NW 37 56 20 30 1011.6 1011.6 0.0
20/02:00pm 22.2 17.2 14.1 60 4.7 NW 33 46 18 25 1011.8 1011.8 0.0
20/01:30pm 21.7 16.7 14.1 62 4.4 NW 33 48 18 26 1012.2 1012.2 0.0
20/01:11pm 21.2 16.2 14.1 64 4.1 NW 33 52 18 28 1012.6 1012.6 0.0
20/01:00pm 20.1 15.2 13.6 66 3.7 NW 32 43 17 23 1012.6 1012.6 0.0
20/12:30pm 21.2 17.9 14.1 64 4.1 WNW 24 37 13 20 1012.9 1012.9 0.0
20/12:00pm 19.5 15.0 13.7 69 3.3 NW 30 41 16 22 1013.3 1013.3 0.0
20/11:30am 18.3 14.7 13.2 72 2.9 WNW 24 33 13 18 1013.4 1013.4 0.0
20/11:00am 18.8 14.0 12.8 68 3.4 WNW 30 43 16 23 1013.5 1013.5 0.0
20/10:30am 18.9 13.6 13.1 69 3.3 WNW 33 44 18 24 1013.2 1013.2 0.0
20/10:00am 18.4 13.2 12.8 70 3.1 WNW 32 52 17 28 1013.1 1013.1 0.0
20/09:32am 17.1 11.8 12.6 75 2.5 W 32 50 17 27 1013.4 1013.4 0.0
20/09:30am 16.9 10.9 12.2 74 2.6 WNW 35 50 19 27 1013.4 1013.4 0.0
20/09:23am 16.9 12.3 12.2 74 2.6 W 28 48 15 26 1013.4 1013.4 0.0
20/09:21am 16.9 12.3 12.2 74 2.6 W 28 44 15 24 1013.4 1013.4 0.0
20/09:00am 16.8 15.8 12.3 75 2.5 SSE 9 19 5 10 1013.6 1013.6 0.0
20/08:30am 16.0 13.8 12.2 78 2.1 WNW 15 24 8 13 1013.7 1013.7 0.0
20/08:00am 15.2 13.4 12.0 81 1.7 NW 13 19 7 10 1013.6 1013.6 0.0
20/07:30am 14.6 12.5 11.2 80 1.8 NNW 13 19 7 10 1013.4 1013.4 0.0
20/07:00am 13.6 11.9 9.8 78 2.0 NW 9 15 5 8 1013.5 1013.5 0.0
20/06:30am 12.8 10.1 9.1 78 1.9 W 13 20 7 11 1013.5 1013.5 0.0
20/06:00am 12.0 9.4 7.9 76 2.0 WNW 11 13 6 7 1013.4 1013.4 0.0
20/05:30am 12.1 7.7 7.6 74 2.2 W 20 33 11 18 1013.2 1013.2 0.0
20/05:00am 11.6 5.1 6.7 72 2.3 W 30 39 16 21 1012.8 1012.8 0.0
20/04:30am 11.2 7.2 6.5 73 2.2 W 17 24 9 13 1012.6 1012.6 0.0
20/04:00am 11.4 6.9 6.3 71 2.4 WNW 19 26 10 14 1012.7 1012.7 0.0
20/03:30am 10.9 6.5 6.6 75 2.0 WNW 19 22 10 12 1012.8 1012.8 0.0
20/03:00am 10.2 6.2 6.7 79 1.6 WNW 17 20 9 11 1013.0 1013.0 0.0
20/02:30am 10.7 6.3 7.6 81 1.5 WNW 20 24 11 13 1013.1 1013.1 0.0
20/02:00am 11.0 6.7 8.0 82 1.5 WNW 20 24 11 13 1013.5 1013.5 0.0
20/01:30am 10.8 7.0 7.7 81 1.5 WNW 17 20 9 11 1013.7 1013.7 0.0
20/01:00am 11.5 7.8 8.0 79 1.7 WSW 17 20 9 11 1013.9 1013.9 0.0
20/12:30am 12.3 9.1 8.6 78 1.8 SW 15 17 8 9 1014.1 1014.1 0.0
20/12:00am 12.7 9.6 8.8 77 2.0 WSW 15 17 8 9 1014.3 1014.3 0.0
 
Date/Time
EDT
Temp
°C
App
Temp
°C
Dew
Point
Rel
Hum
%
Delta-T
°C
Wind Press
QNH
hPa
Press
MSL
hPa
Rain
since 9 am
mm
Dir
 
Spd
km/h
Gust
km/h
Spd
kts
Gust
kts
19/11:30pm 13.8 9.9 9.6 76 2.2 SW 20 26 11 14 1014.4 1014.4 0.0
19/11:00pm 14.2 10.0 9.8 75 2.3 SW 22 26 12 14 1014.3 1014.3 0.0
19/10:30pm 14.3 9.8 10.1 76 2.2 SW 24 32 13 17 1014.3 1014.3 0.0
19/10:00pm 14.3 10.6 10.1 76 2.2 SW 20 26 11 14 1014.3 1014.3 0.0
19/09:30pm 14.4 10.8 10.0 75 2.3 SW 19 20 10 11 1014.0 1014.0 0.0
19/09:00pm 15.1 11.5 9.9 71 2.7 SW 19 20 10 11 1013.6 1013.6 0.0
19/08:30pm 16.3 12.9 9.0 62 3.8 W 17 22 9 12 1013.4 1013.4 0.0
19/08:00pm 17.2 12.7 8.4 56 4.5 W 22 32 12 17 1013.0 1013.0 0.0
19/07:30pm 18.3 14.0 8.0 51 5.3 WNW 20 28 11 15 1012.7 1012.7 0.0
19/07:00pm 17.8 12.8 8.1 53 5.0 WNW 24 32 13 17 1012.6 1012.6 0.0
19/06:30pm 17.2 11.0 7.8 54 4.8 WNW 30 43 16 23 1012.4 1012.4 0.0
19/06:00pm 17.5 12.4 7.5 52 5.0 WNW 24 35 13 19 1012.2 1012.2 0.0
19/05:30pm 17.9 11.4 8.2 53 5.0 NW 32 43 17 23 1012.1 1012.1 0.0
19/05:00pm 17.5 11.4 8.4 55 4.7 NW 30 44 16 24 1011.9 1011.9 0.0
19/04:30pm 17.1 11.3 8.0 55 4.6 NW 28 41 15 22 1012.2 1012.2 0.0
19/04:00pm 17.1 12.2 8.3 56 4.5 NW 24 37 13 20 1012.3 1012.3 0.0
19/03:30pm 17.7 11.7 7.2 50 5.3 WNW 28 37 15 20 1012.2 1012.2 0.0
19/03:00pm 18.3 12.4 10.4 60 4.2 N 32 44 17 24 1012.3 1012.3 0.0
19/02:30pm 15.7 9.3 8.7 63 3.6 NNE 32 39 17 21 1012.5 1012.5 0.0
19/02:00pm 15.6 10.2 8.1 61 3.8 NNE 26 32 14 17 1012.6 1012.6 0.0
19/01:30pm 17.0 12.7 9.2 60 4.1 N 22 26 12 14 1012.8 1012.8 0.0
19/01:00pm 16.8 13.5 8.0 56 4.5 NNE 15 19 8 10 1012.7 1012.7 0.0
19/12:30pm 18.4 15.9 8.1 51 5.3 ENE 11 15 6 8 1012.6 1012.6 0.0
19/12:00pm 19.3 17.0 8.9 51 5.4 ESE 11 15 6 8 1012.5 1012.5 0.0
19/11:30am 18.2 14.9 8.2 52 5.1 SE 15 20 8 11 1012.3 1012.3 0.0
19/11:00am 19.4 14.9 8.4 49 5.7 SSE 22 26 12 14 1012.2 1012.2 0.0
19/10:30am 18.9 14.4 8.6 51 5.4 SSE 22 28 12 15 1012.2 1012.2 0.0
19/10:00am 18.3 12.4 7.7 50 5.4 S 28 33 15 18 1012.1 1012.1 0.0
19/09:30am 17.9 13.4 8.7 55 4.8 S 22 28 12 15 1012.0 1012.0 0.0
19/09:00am 16.5 10.1 8.5 59 4.1 S 32 41 17 22 1012.0 1012.0 0.0
19/08:30am 15.9 10.6 8.4 61 3.8 SSW 26 32 14 17 1011.6 1011.6 0.0
19/08:00am 14.8 10.9 9.4 70 2.8 SSW 20 26 11 14 1011.4 1011.4 0.0
19/07:30am 14.0 10.0 9.0 72 2.5 SSW 20 24 11 13 1011.1 1011.1 0.0
19/07:00am 12.5 8.6 9.3 81 1.6 SW 20 22 11 12 1010.6 1010.6 0.0
19/06:30am 10.8 6.9 8.7 87 1.0 SW 19 20 10 11 1010.2 1010.2 0.0
19/06:00am 9.6 6.2 7.5 87 1.0 WSW 15 17 8 9 1009.8 1009.8 0.0
19/05:30am 9.9 6.9 7.7 86 1.1 SW 13 15 7 8 1009.5 1009.5 0.0
19/05:00am 9.7 5.9 7.6 87 1.0 W 17 19 9 10 1009.1 1009.1 0.0
19/04:30am 9.7 5.3 7.6 87 1.0 W 20 24 11 13 1008.6 1008.6 0.0
19/04:00am 9.9 5.8 8.0 88 0.9 W 19 20 10 11 1008.1 1008.1 0.0
19/03:30am 10.1 5.9 8.4 89 0.8 W 20 26 11 14 1007.9 1007.9 0.0
19/03:00am 10.1 6.0 8.5 90 0.8 W 20 24 11 13 1007.7 1007.7 0.0
19/02:30am 10.3 6.2 8.6 89 0.8 W 20 24 11 13 1007.5 1007.5 0.0
19/02:00am 10.8 6.8 8.9 88 0.9 W 20 26 11 14 1007.5 1007.5 0.0
19/01:30am 11.0 6.6 9.1 88 0.9 W 22 28 12 15 1007.3 1007.3 0.0
19/01:00am 11.3 7.0 9.4 88 1.0 W 22 30 12 16 1007.0 1007.0 0.0
19/12:30am 11.6 8.0 9.7 88 1.0 WNW 19 24 10 13 1007.1 1007.1 0.0
19/12:00am 12.0 8.2 9.9 87 1.1 W 20 24 11 13 1006.9 1006.9 0.0
 
Date/Time
EDT
Temp
°C
App
Temp
°C
Dew
Point
Rel
Hum
%
Delta-T
°C
Wind Press
QNH
hPa
Press
MSL
hPa
Rain
since 9 am
mm
Dir
 
Spd
km/h
Gust
km/h
Spd
kts
Gust
kts
18/11:30pm 12.5 8.8 10.0 85 1.3 WNW 20 26 11 14 1006.9 1006.9 0.0
18/11:00pm 12.7 9.9 9.9 83 1.4 WNW 15 20 8 11 1006.5 1006.5 0.0
18/10:30pm 13.1 11.0 9.9 81 1.6 WNW 11 15 6 8 1006.4 1006.4 0.0
18/10:00pm 13.4 10.2 9.8 79 1.9 WNW 17 28 9 15 1005.9 1005.9 0.0
18/09:30pm 13.5 10.2 9.7 78 1.9 WNW 17 26 9 14 1005.7 1005.7 0.0
18/09:00pm 14.0 8.4 10.0 77 2.1 WNW 30 43 16 23 1005.1 1005.1 0.0
18/08:32pm 14.5 9.0 9.3 71 2.7 WNW 28 48 15 26 1004.8 1004.8 0.0
18/08:30pm 14.5 9.4 9.3 71 2.7 WNW 26 35 14 19 1004.8 1004.8 0.0
18/08:00pm 15.4 10.6 8.9 65 3.3 WNW 24 37 13 20 1004.5 1004.5 0.0
18/07:30pm 16.2 9.8 9.2 63 3.6 WNW 33 46 18 25 1004.1 1004.1 0.0
18/07:00pm 17.6 12.3 9.8 60 4.1 WNW 28 39 15 21 1003.6 1003.6 0.0
18/06:30pm 18.4 12.5 10.3 59 4.3 WNW 32 44 17 24 1003.0 1003.0 0.0
18/06:00pm 18.8 12.3 10.4 58 4.5 WNW 35 54 19 29 1002.8 1002.8 0.0
18/05:30pm 18.9 11.8 11.0 60 4.3 W 39 61 21 33 1002.6 1002.6 0.0
18/05:28pm 18.6 11.5 10.9 61 4.2 W 39 61 21 33 1002.5 1002.5 0.0
18/05:00pm 18.7 11.2 12.2 66 3.6 WNW 43 57 23 31 1002.3 1002.3 0.0
18/04:37pm 19.0 13.0 13.2 69 3.3 NW 37 56 20 30 1002.3 1002.3 0.0
18/04:30pm 19.4 13.9 13.6 69 3.3 NW 35 48 19 26 1002.3 1002.3 0.0
18/04:00pm 20.0 14.2 13.9 68 3.5 NW 37 52 20 28 1002.1 1002.1 0.0
18/03:38pm 19.7 14.3 14.9 74 2.8 NNW 37 50 20 27 1002.0 1002.0 0.0
18/03:30pm 17.8 11.5 14.5 81 1.9 NNW 41 50 22 27 1001.9 1001.9 0.0
18/03:00pm 19.4 14.0 14.9 75 2.6 N 37 46 20 25 1001.9 1001.9 0.0
18/02:30pm 19.2 14.1 15.9 81 2.0 N 37 44 20 24 1002.4 1002.4 0.0
18/02:00pm 19.5 14.9 16.2 81 2.0 NNE 35 43 19 23 1002.8 1002.8 0.0
18/01:30pm 18.9 14.1 15.6 81 1.9 NNE 35 43 19 23 1003.2 1003.2 0.0
18/01:00pm 18.9 15.0 15.6 81 2.0 NNE 30 35 16 19 1003.7 1003.7 0.0
18/12:30pm 18.5 16.1 15.4 82 1.8 NNE 22 26 12 14 1004.1 1004.1 0.0
18/12:00pm 17.1 13.7 13.8 81 1.9 NNE 24 30 13 16 1004.4 1004.4 0.0
18/11:30am 17.1 13.6 13.4 79 2.1 NNE 24 30 13 16 1004.7 1004.7 0.0
18/11:00am 17.2 14.1 13.3 78 2.2 N 22 28 12 15 1005.2 1005.2 0.0

Other Formats:

Comma delimited format used in spreadsheet applications
http://www.bom.gov.au/fwo/IDT60801/IDT60801.94983.axf

JavaScript Object Notation format (JSON) in row-major order
http://www.bom.gov.au/fwo/IDT60801/IDT60801.94983.json